createdAt,value
2022-11-25T00:01:15.463Z,61.668
2022-11-25T00:06:17.029Z,62.99954
2022-11-25T00:11:18.531Z,62.93804
2022-11-25T00:16:20.295Z,63.44127
2022-11-25T00:21:21.844Z,64.17233
2022-11-25T00:26:23.392Z,62.92829
2022-11-25T00:31:25.373Z,63.31111
2022-11-25T00:36:26.973Z,62.6579
2022-11-25T00:41:28.662Z,64.41992
2022-11-25T00:46:30.381Z,63.94483
2022-11-25T00:51:32.028Z,65.40172
2022-11-25T00:56:33.476Z,64.96122
2022-11-25T01:01:35.333Z,66.10141
2022-11-25T01:06:37.031Z,66.40283
2022-11-25T01:11:38.587Z,66.04596
2022-11-25T01:16:40.322Z,65.78068
2022-11-25T01:21:41.979Z,66.30298
2022-11-25T01:26:43.654Z,66.09439
2022-11-25T01:31:45.820Z,67.2039
2022-11-25T01:36:47.374Z,66.98684
2022-11-25T01:41:48.802Z,67.58215
2022-11-25T01:46:50.402Z,67.91284
2022-11-25T01:51:51.987Z,68.05003
2022-11-25T01:56:53.650Z,68.33678
2022-11-25T02:01:55.774Z,68.59587
2022-11-25T02:06:57.251Z,70.37438
2022-11-25T02:11:58.796Z,72.77785
2022-11-25T02:17:00.728Z,72.08424
2022-11-25T02:22:02.301Z,71.02425
2022-11-25T02:27:04.066Z,71.66362
2022-11-25T02:32:06.532Z,73.90262
2022-11-25T02:37:08.365Z,77.28337
2022-11-25T02:42:10.286Z,77.89664
2022-11-25T02:47:12.114Z,77.10752
2022-11-25T02:52:14.004Z,75.21386
2022-11-25T02:57:15.833Z,76.68041
2022-11-25T03:02:17.961Z,78.26695
2022-11-25T03:07:19.549Z,80.80033
2022-11-25T03:12:21.458Z,85.07441
2022-11-25T03:17:23.352Z,85.71367
2022-11-25T03:22:25.032Z,83.602
2022-11-25T03:27:30.187Z,84.71722
2022-11-25T03:32:32.363Z,86.60088
2022-11-25T03:37:34.151Z,83.98117
2022-11-25T03:42:35.938Z,90.41255
2022-11-25T03:47:37.880Z,86.71993
2022-11-25T03:52:39.346Z,85.02334
2022-11-25T03:57:41.162Z,84.52423
2022-11-25T04:02:43.233Z,80.45802
2022-11-25T04:07:44.820Z,83.8117
2022-11-25T04:12:46.451Z,81.88144
2022-11-25T04:17:48.155Z,87.80104
2022-11-25T04:22:49.736Z,84.02974
2022-11-25T04:27:51.319Z,84.83419
2022-11-25T04:32:53.329Z,84.87183
2022-11-25T04:37:55.025Z,81.12539
2022-11-25T04:43:02.544Z,76.73572
2022-11-25T04:48:08.016Z,70.7002
2022-11-25T04:53:09.713Z,71.99534
2022-11-25T04:58:11.348Z,69.98773
2022-11-25T05:03:13.213Z,69.7165
2022-11-25T05:08:14.888Z,66.26165
2022-11-25T05:13:16.702Z,62.78077
2022-11-25T05:18:18.480Z,62.18952
2022-11-25T05:23:20.361Z,61.51043
2022-11-25T05:28:22.247Z,60.2938
2022-11-25T05:33:24.322Z,60.47333
2022-11-25T05:38:26.090Z,58.7757
2022-11-25T05:43:27.899Z,55.44356
2022-11-25T05:48:29.665Z,58.09199
2022-11-25T05:53:31.436Z,53.25929
2022-11-25T05:58:33.198Z,53.31958
2022-11-25T06:03:35.224Z,52.73068
2022-11-25T06:08:37.054Z,52.49549
2022-11-25T06:13:38.884Z,49.64002
2022-11-25T06:18:40.644Z,49.43208
2022-11-25T06:23:42.302Z,49.36962
2022-11-25T06:28:44.044Z,50.10945
2022-11-25T06:33:45.784Z,48.73751
2022-11-25T06:38:47.403Z,50.65497
2022-11-25T06:43:48.938Z,50.5055
2022-11-25T06:48:50.524Z,47.97607
2022-11-25T06:53:52.277Z,48.42715
2022-11-25T06:58:53.947Z,46.69509
2022-11-25T07:03:55.745Z,47.02689
2022-11-25T07:08:57.232Z,45.04402
2022-11-25T07:13:58.877Z,43.79537
2022-11-25T07:19:00.448Z,44.02471
2022-11-25T07:24:01.971Z,40.37474
2022-11-25T07:29:03.677Z,42.48344
2022-11-25T07:34:05.732Z,43.00155
2022-11-25T07:39:07.381Z,43.15681
2022-11-25T07:44:09.171Z,44.34979
2022-11-25T07:49:11.010Z,39.98893
2022-11-25T07:54:12.693Z,42.98447
2022-11-25T07:59:14.449Z,40.79228
2022-11-25T08:04:19.757Z,40.88327
2022-11-25T08:09:21.909Z,40.88439
2022-11-25T08:14:23.580Z,41.69547
2022-11-25T08:19:31.115Z,40.02039
2022-11-25T08:24:33.289Z,39.5433
2022-11-25T08:29:35.462Z,41.74319
2022-11-25T08:34:37.607Z,40.98611
2022-11-25T08:39:53.256Z,40.01228
2022-11-25T08:44:55.490Z,42.38317
2022-11-25T08:49:57.392Z,41.06347
2022-11-25T08:54:59.157Z,41.25023
2022-11-25T09:00:00.930Z,38.19698
2022-11-25T09:05:03.809Z,32.21485
2022-11-25T09:10:05.560Z,33.25738
2022-11-25T09:15:07.368Z,29.56308
2022-11-25T09:20:09.282Z,31.4869
2022-11-25T09:25:11.107Z,31.13091
2022-11-25T09:30:12.912Z,33.31776
2022-11-25T09:35:14.970Z,31.05603
2022-11-25T09:40:16.754Z,30.30394
2022-11-25T09:45:18.241Z,30.08487
2022-11-25T09:50:20.156Z,28.70142
2022-11-25T09:55:21.990Z,31.48544
2022-11-25T10:00:23.791Z,31.69161
2022-11-25T10:05:26.033Z,31.93654
2022-11-25T10:10:27.806Z,33.43084
2022-11-25T10:15:29.582Z,33.2427
2022-11-25T10:20:31.459Z,29.84611
2022-11-25T10:25:33.184Z,28.96949
2022-11-25T10:30:34.987Z,31.2855
2022-11-25T10:35:36.949Z,31.82713
2022-11-25T10:40:38.727Z,29.36981
2022-11-25T10:45:40.523Z,29.29508
2022-11-25T10:50:42.313Z,29.80217
2022-11-25T10:55:44.108Z,29.75059
2022-11-25T11:00:45.689Z,29.95814
2022-11-25T11:05:47.561Z,29.29505
2022-11-25T11:10:54.347Z,24.72429
2022-11-25T11:15:59.052Z,24.20593
2022-11-25T11:21:00.924Z,24.1931
2022-11-25T11:26:02.655Z,25.12466
2022-11-25T11:31:04.499Z,22.89238
2022-11-25T11:36:06.592Z,18.61982
2022-11-25T11:41:08.367Z,20.69201
2022-11-25T11:46:10.252Z,21.00503
2022-11-25T11:51:12.065Z,20.28013
2022-11-25T11:56:34.830Z,20.8271
2022-11-25T12:01:37.319Z,21.72433
2022-11-25T12:06:39.348Z,20.08563
2022-11-25T12:11:41.149Z,19.52462
2022-11-25T12:16:42.755Z,18.79509
2022-11-25T12:21:44.582Z,19.724
2022-11-25T12:26:46.169Z,18.96028
2022-11-25T12:31:47.845Z,17.01502
2022-11-25T12:36:49.571Z,18.51312
2022-11-25T12:41:51.283Z,16.91234
2022-11-25T12:46:52.820Z,16.87909
2022-11-25T12:51:54.595Z,17.13336
2022-11-25T12:56:56.468Z,18.2944
2022-11-25T13:01:58.263Z,17.03837
2022-11-25T13:07:00.438Z,14.81069
2022-11-25T13:12:02.704Z,15.92319
2022-11-25T13:17:05.061Z,16.62616
2022-11-25T13:22:07.219Z,16.00957
2022-11-25T13:27:08.788Z,16.1487
2022-11-25T13:32:10.710Z,16.91377
2022-11-25T13:37:12.786Z,17.20716
2022-11-25T13:42:14.521Z,17.04336
2022-11-25T13:47:16.428Z,18.03847
2022-11-25T13:52:18.266Z,17.81157
2022-11-25T13:57:19.942Z,18.32809
2022-11-25T14:02:21.910Z,17.84592
2022-11-25T14:07:24.046Z,17.86192
2022-11-25T14:12:25.858Z,17.00846
2022-11-25T14:17:27.635Z,18.14383
2022-11-25T14:22:29.424Z,18.09192
2022-11-25T14:27:31.194Z,17.59935
2022-11-25T14:32:33.054Z,17.84155
2022-11-25T14:37:35.051Z,17.97284
2022-11-25T14:42:36.880Z,18.4532
2022-11-25T14:47:39.153Z,17.79378
2022-11-25T14:52:41.194Z,17.66457
2022-11-25T14:57:42.986Z,18.46474
2022-11-25T15:02:44.815Z,18.53278
2022-11-25T15:07:46.976Z,18.29591
2022-11-25T15:12:53.537Z,18.68293
2022-11-25T15:17:55.543Z,19.82725
2022-11-25T15:22:57.218Z,20.0166
2022-11-25T15:27:59.171Z,20.1495
2022-11-25T15:33:00.865Z,20.39498
2022-11-25T15:38:02.856Z,20.74001
2022-11-25T15:43:04.540Z,20.87508
2022-11-25T15:48:06.239Z,21.53673
2022-11-25T15:53:07.938Z,21.50919
2022-11-25T15:58:09.718Z,21.59083
2022-11-25T16:03:11.572Z,22.15433
2022-11-25T16:08:13.492Z,23.13498
2022-11-25T16:13:20.978Z,23.34515
2022-11-25T16:23:34.544Z,23.43261
2022-11-25T16:28:36.291Z,23.97953
2022-11-25T16:33:37.797Z,23.50142
2022-11-25T16:38:39.792Z,23.48982
2022-11-25T16:43:41.481Z,23.02986
2022-11-25T16:48:43.182Z,23.50696
2022-11-25T16:53:44.671Z,23.36579
2022-11-25T16:58:46.328Z,23.92993
2022-11-25T17:03:47.979Z,23.818
2022-11-25T17:08:49.881Z,24.54552
2022-11-25T17:13:51.552Z,24.3319
2022-11-25T17:18:53.446Z,23.95007
2022-11-25T17:23:55.417Z,23.97525
2022-11-25T17:28:57.296Z,23.9809
2022-11-25T17:33:59.079Z,23.66735
2022-11-25T17:39:01.121Z,26.66396
2022-11-25T17:44:02.942Z,38.23603
2022-11-25T17:49:04.428Z,46.49555
2022-11-25T17:54:06.187Z,44.66982
2022-11-25T17:59:07.847Z,47.37625
2022-11-25T18:04:14.886Z,47.67643
2022-11-25T18:09:18.065Z,45.65786
2022-11-25T18:14:19.846Z,47.90122
2022-11-25T18:19:21.555Z,48.19949
2022-11-25T18:24:23.460Z,50.26617
2022-11-25T18:29:25.112Z,49.17086
2022-11-25T18:34:26.791Z,49.95
2022-11-25T18:39:28.675Z,52.18051
2022-11-25T18:44:30.340Z,52.97521
2022-11-25T18:49:32.074Z,54.6417
2022-11-25T18:54:33.935Z,55.34148
2022-11-25T18:59:35.670Z,55.53793
2022-11-25T19:04:37.668Z,53.69966
2022-11-25T19:09:39.834Z,53.79489
2022-11-25T19:14:41.604Z,55.36781
2022-11-25T19:19:43.390Z,55.16447
2022-11-25T19:24:45.181Z,56.86333
2022-11-25T19:29:46.972Z,56.67577
2022-11-25T19:34:48.655Z,57.07319
2022-11-25T19:39:50.419Z,57.68059
2022-11-25T19:44:52.005Z,57.74017
2022-11-25T19:49:53.566Z,59.71223
2022-11-25T19:54:55.280Z,61.27625
2022-11-25T19:59:57.003Z,58.49776
2022-11-25T20:04:59.372Z,59.3056
2022-11-25T20:10:01.465Z,59.05187
2022-11-25T20:15:03.275Z,59.48798
2022-11-25T20:20:05.046Z,61.54826
2022-11-25T20:25:06.937Z,62.04269
2022-11-25T20:30:08.742Z,60.98812
2022-11-25T20:35:10.576Z,61.06042
2022-11-25T20:40:12.563Z,60.69922
2022-11-25T20:45:14.346Z,60.22053
2022-11-25T20:50:16.165Z,61.33962
2022-11-25T20:55:18.278Z,61.17905
2022-11-25T21:00:20.076Z,61.20801
2022-11-25T21:05:21.909Z,61.84718
2022-11-25T21:10:23.970Z,62.78393
2022-11-25T21:15:25.749Z,64.19876
2022-11-25T21:20:27.253Z,64.58669
2022-11-25T21:25:29.124Z,65.13756
2022-11-25T21:30:30.901Z,64.36788
2022-11-25T21:35:32.653Z,63.84614
2022-11-25T21:40:34.676Z,63.67009
2022-11-25T21:45:36.431Z,63.47982
2022-11-25T21:50:38.199Z,63.0617
2022-11-25T21:55:40.012Z,62.6758
2022-11-25T22:00:41.916Z,61.21559
2022-11-25T22:05:43.656Z,63.00398
2022-11-25T22:10:45.694Z,63.57269
2022-11-25T22:15:47.455Z,62.02366
2022-11-25T22:20:53.241Z,62.60563
2022-11-25T22:25:55.750Z,63.67759
2022-11-25T22:30:57.492Z,63.18289
2022-11-25T22:35:59.123Z,62.04797
2022-11-25T22:41:01.609Z,63.47534
2022-11-25T22:46:03.400Z,62.64316
2022-11-25T22:51:05.206Z,63.03031
2022-11-25T22:56:07.028Z,61.74417
2022-11-25T23:01:08.776Z,63.13227
2022-11-25T23:06:10.581Z,62.64749
2022-11-25T23:11:12.565Z,63.65284
2022-11-25T23:16:14.374Z,63.00775
2022-11-25T23:21:16.175Z,64.94736
2022-11-25T23:26:17.920Z,65.03677
2022-11-25T23:31:19.684Z,64.83013
2022-11-25T23:36:21.502Z,65.18658
2022-11-25T23:41:24.635Z,66.54577
2022-11-25T23:46:26.390Z,65.18176
2022-11-25T23:51:28.070Z,66.09873
2022-11-25T23:56:29.804Z,66.21507
